createdAt,value
2022-11-26T00:00:34.507Z,0.00
2022-11-26T00:01:34.463Z,0.00
2022-11-26T00:02:34.554Z,0.00
2022-11-26T00:03:34.543Z,0.00
2022-11-26T00:04:34.613Z,0.00
2022-11-26T00:05:34.426Z,0.00
2022-11-26T00:06:34.432Z,0.00
2022-11-26T00:07:34.456Z,0.00
2022-11-26T00:08:34.383Z,0.00
2022-11-26T00:09:34.383Z,0.00
2022-11-26T00:10:34.364Z,0.00
2022-11-26T00:11:34.351Z,0.00
2022-11-26T00:12:34.354Z,0.00
2022-11-26T00:13:34.333Z,0.00
2022-11-26T00:14:34.329Z,0.00
2022-11-26T00:15:34.302Z,0.00
2022-11-26T00:16:34.351Z,0.00
2022-11-26T00:17:34.341Z,0.00
2022-11-26T00:18:34.273Z,0.00
2022-11-26T00:19:34.254Z,0.00
2022-11-26T00:20:34.259Z,0.00
2022-11-26T00:21:34.270Z,0.00
2022-11-26T00:22:34.232Z,0.00
2022-11-26T00:23:34.241Z,0.00
2022-11-26T00:24:34.211Z,0.00
2022-11-26T00:25:34.192Z,0.00
2022-11-26T00:26:34.182Z,0.00
2022-11-26T00:27:34.166Z,0.00
2022-11-26T00:28:34.158Z,0.00
2022-11-26T00:29:34.162Z,0.00
2022-11-26T00:30:34.258Z,0.00
2022-11-26T00:31:34.343Z,0.00
2022-11-26T00:32:34.112Z,0.00
2022-11-26T00:33:34.093Z,0.00
2022-11-26T00:34:34.089Z,0.00
2022-11-26T00:35:34.092Z,0.00
2022-11-26T00:36:34.072Z,0.00
2022-11-26T00:37:34.052Z,0.00
2022-11-26T00:38:34.052Z,0.00
2022-11-26T00:39:34.042Z,0.00
2022-11-26T00:40:34.036Z,0.00
2022-11-26T00:41:34.035Z,0.00
2022-11-26T00:42:33.992Z,0.00
2022-11-26T00:43:33.979Z,0.00
2022-11-26T00:44:33.982Z,0.00
2022-11-26T00:45:34.014Z,0.00
2022-11-26T00:46:34.010Z,0.00
2022-11-26T00:47:33.932Z,0.00
2022-11-26T00:48:33.922Z,0.00
2022-11-26T00:49:33.922Z,0.00
2022-11-26T00:50:33.911Z,0.00
2022-11-26T00:51:33.902Z,0.00
2022-11-26T00:52:33.914Z,0.00
2022-11-26T00:53:33.877Z,0.00
2022-11-26T00:54:33.859Z,0.00
2022-11-26T00:55:33.842Z,0.00
2022-11-26T00:56:37.748Z,0.00
2022-11-26T00:57:33.840Z,0.00
2022-11-26T00:58:33.847Z,0.00
2022-11-26T00:59:33.801Z,0.00
2022-11-26T01:00:33.802Z,0.00
2022-11-26T01:01:33.832Z,0.00
2022-11-26T01:02:33.809Z,0.00
2022-11-26T01:03:33.761Z,0.00
2022-11-26T01:04:33.778Z,0.00
2022-11-26T01:05:33.869Z,0.00
2022-11-26T01:06:33.730Z,0.00
2022-11-26T01:07:33.781Z,0.00
2022-11-26T01:08:33.696Z,0.00
2022-11-26T01:09:33.730Z,0.00
2022-11-26T01:10:33.690Z,0.00
2022-11-26T01:11:33.661Z,0.00
2022-11-26T01:12:33.664Z,0.00
2022-11-26T01:13:33.651Z,0.00
2022-11-26T01:14:33.631Z,0.00
2022-11-26T01:15:33.715Z,0.00
2022-11-26T01:16:34.366Z,0.00
2022-11-26T01:17:33.589Z,0.00
2022-11-26T01:18:33.593Z,0.00
2022-11-26T01:19:33.573Z,0.00
2022-11-26T01:20:33.588Z,0.00
2022-11-26T01:21:33.678Z,0.00
2022-11-26T01:22:33.541Z,0.00
2022-11-26T01:23:33.526Z,0.00
2022-11-26T01:24:33.524Z,0.00
2022-11-26T01:25:33.501Z,0.00
2022-11-26T01:26:33.496Z,0.00
2022-11-26T01:27:33.516Z,0.00
2022-11-26T01:28:33.471Z,0.00
2022-11-26T01:29:33.524Z,0.00
2022-11-26T01:30:33.440Z,0.00
2022-11-26T01:31:33.467Z,0.00
2022-11-26T01:32:33.420Z,0.00
2022-11-26T01:33:33.430Z,0.00
2022-11-26T01:34:33.401Z,0.00
2022-11-26T01:35:33.393Z,0.00
2022-11-26T01:36:33.370Z,0.00
2022-11-26T01:37:33.371Z,0.00
2022-11-26T01:38:33.370Z,0.00
2022-11-26T01:39:33.353Z,0.00
2022-11-26T01:40:33.329Z,0.00
2022-11-26T01:41:33.328Z,0.00
2022-11-26T01:42:33.375Z,0.00
2022-11-26T01:43:33.299Z,0.00
2022-11-26T01:44:33.322Z,0.00
2022-11-26T01:45:33.358Z,0.00
2022-11-26T01:46:33.262Z,0.00
2022-11-26T01:47:33.242Z,0.00
2022-11-26T01:48:33.248Z,0.00
2022-11-26T01:49:33.219Z,0.00
2022-11-26T01:50:33.272Z,0.00
2022-11-26T01:51:33.199Z,0.00
2022-11-26T01:52:33.192Z,0.00
2022-11-26T01:53:33.178Z,0.00
2022-11-26T01:54:33.181Z,0.00
2022-11-26T01:55:33.152Z,0.00
2022-11-26T01:56:33.180Z,0.00
2022-11-26T01:57:33.137Z,0.00
2022-11-26T01:58:36.911Z,0.00
2022-11-26T01:59:34.128Z,0.00
2022-11-26T02:00:33.143Z,0.00
2022-11-26T02:01:33.153Z,0.00
2022-11-26T02:02:33.143Z,0.00
2022-11-26T02:03:33.078Z,0.00
2022-11-26T02:04:33.057Z,0.00
2022-11-26T02:05:33.040Z,0.00
2022-11-26T02:06:33.040Z,0.00
2022-11-26T02:07:33.041Z,0.00
2022-11-26T02:08:33.110Z,0.00
2022-11-26T02:09:32.998Z,0.00
2022-11-26T02:10:32.997Z,0.00
2022-11-26T02:11:32.967Z,0.00
2022-11-26T02:12:32.959Z,0.00
2022-11-26T02:13:32.949Z,0.00
2022-11-26T02:14:32.980Z,0.00
2022-11-26T02:15:32.928Z,0.00
2022-11-26T02:16:32.964Z,0.00
2022-11-26T02:17:32.916Z,0.00
2022-11-26T02:18:32.908Z,0.00
2022-11-26T02:19:32.880Z,0.00
2022-11-26T02:20:32.889Z,0.00
2022-11-26T02:21:32.869Z,0.00
2022-11-26T02:22:32.851Z,0.00
2022-11-26T02:23:32.839Z,0.00
2022-11-26T02:24:32.827Z,0.00
2022-11-26T02:25:32.828Z,0.00
2022-11-26T02:26:32.835Z,0.00
2022-11-26T02:27:32.797Z,0.00
2022-11-26T02:28:32.777Z,0.00
2022-11-26T02:29:32.769Z,0.00
2022-11-26T02:30:32.765Z,0.00
2022-11-26T02:31:32.799Z,0.00
2022-11-26T02:32:32.796Z,0.00
2022-11-26T02:33:32.718Z,0.00
2022-11-26T02:34:37.188Z,0.00
2022-11-26T02:35:32.708Z,0.00
2022-11-26T02:36:32.690Z,0.00
2022-11-26T02:37:32.681Z,0.00
2022-11-26T02:38:32.740Z,0.00
2022-11-26T02:39:32.675Z,0.00
2022-11-26T02:40:32.655Z,0.00
2022-11-26T02:41:32.643Z,0.00
2022-11-26T02:42:32.626Z,0.00
2022-11-26T02:43:32.619Z,0.00
2022-11-26T02:44:32.634Z,0.00
2022-11-26T02:45:32.639Z,0.00
2022-11-26T02:46:32.579Z,0.00
2022-11-26T02:47:32.568Z,0.00
2022-11-26T02:48:32.557Z,0.00
2022-11-26T02:49:32.546Z,0.00
2022-11-26T02:50:32.559Z,0.00
2022-11-26T02:51:34.948Z,0.00
2022-11-26T02:52:32.516Z,0.00
2022-11-26T02:53:32.500Z,0.00
2022-11-26T02:54:32.486Z,0.00
2022-11-26T02:55:32.500Z,0.00
2022-11-26T02:56:32.510Z,0.00
2022-11-26T02:57:32.467Z,0.00
2022-11-26T02:58:32.446Z,0.00
2022-11-26T02:59:32.438Z,0.00
2022-11-26T03:00:32.424Z,0.00
2022-11-26T03:01:32.430Z,0.00
2022-11-26T03:02:32.424Z,0.00
2022-11-26T03:03:32.458Z,0.00
2022-11-26T03:04:32.372Z,0.00
2022-11-26T03:05:32.365Z,0.00
2022-11-26T03:06:32.359Z,0.00
2022-11-26T03:07:32.457Z,0.00
2022-11-26T03:08:32.356Z,0.00
2022-11-26T03:09:32.320Z,0.00
2022-11-26T03:10:32.309Z,0.00
2022-11-26T03:11:32.341Z,0.00
2022-11-26T03:12:32.286Z,0.00
2022-11-26T03:13:32.266Z,0.00
2022-11-26T03:14:32.278Z,0.00
2022-11-26T03:15:32.246Z,0.00
2022-11-26T03:16:32.288Z,0.00
2022-11-26T03:17:32.234Z,0.00
2022-11-26T03:18:32.224Z,0.00
2022-11-26T03:19:32.203Z,0.00
2022-11-26T03:20:32.214Z,0.00
2022-11-26T03:21:32.185Z,0.00
2022-11-26T03:22:32.167Z,0.00
2022-11-26T03:23:32.169Z,0.00
2022-11-26T03:24:32.138Z,0.00
2022-11-26T03:25:32.134Z,0.00
2022-11-26T03:26:32.148Z,0.00
2022-11-26T03:27:32.113Z,0.00
2022-11-26T03:28:32.097Z,0.00
2022-11-26T03:29:32.098Z,0.00
2022-11-26T03:30:32.079Z,0.00
2022-11-26T03:31:32.101Z,0.00
2022-11-26T03:32:32.099Z,0.00
2022-11-26T03:33:32.057Z,0.00
2022-11-26T03:34:32.032Z,0.00
2022-11-26T03:35:32.025Z,0.00
2022-11-26T03:36:32.006Z,0.00
2022-11-26T03:37:32.012Z,0.00
2022-11-26T03:38:32.005Z,0.00
2022-11-26T03:39:31.974Z,0.00
2022-11-26T03:40:31.962Z,0.00
2022-11-26T03:41:31.955Z,0.00
2022-11-26T03:42:31.963Z,0.00
2022-11-26T03:43:31.936Z,0.00
2022-11-26T03:44:31.952Z,0.00
2022-11-26T03:45:31.929Z,0.00
2022-11-26T03:46:31.902Z,0.00
2022-11-26T03:47:31.880Z,0.00
2022-11-26T03:48:31.876Z,0.00
2022-11-26T03:49:31.863Z,0.00
2022-11-26T03:50:31.873Z,0.00
2022-11-26T03:51:31.843Z,0.00
2022-11-26T03:52:31.828Z,0.00
2022-11-26T03:53:31.813Z,0.00
2022-11-26T03:54:31.802Z,0.00
2022-11-26T03:55:31.796Z,0.00
2022-11-26T03:56:31.802Z,0.00
2022-11-26T03:57:31.762Z,0.00
2022-11-26T03:58:31.766Z,0.00
2022-11-26T03:59:31.741Z,0.00
2022-11-26T04:00:31.732Z,0.00
2022-11-26T04:01:31.844Z,0.00
2022-11-26T04:02:31.754Z,0.00
2022-11-26T04:03:31.780Z,0.00
2022-11-26T04:04:31.691Z,0.00
2022-11-26T04:05:31.682Z,0.00
2022-11-26T04:06:31.670Z,0.00
2022-11-26T04:07:31.762Z,0.00
2022-11-26T04:08:31.663Z,0.00
2022-11-26T04:09:31.636Z,0.00
2022-11-26T04:10:31.623Z,0.00
2022-11-26T04:11:31.635Z,0.00
2022-11-26T04:12:31.613Z,0.00
2022-11-26T04:13:31.602Z,0.00
2022-11-26T04:14:31.602Z,0.00
2022-11-26T04:15:31.593Z,0.00
2022-11-26T04:16:31.614Z,0.00
2022-11-26T04:17:31.551Z,0.00
2022-11-26T04:18:31.557Z,0.00
2022-11-26T04:19:31.532Z,0.00
2022-11-26T04:20:31.539Z,0.00
2022-11-26T04:21:31.512Z,0.00
2022-11-26T04:22:31.497Z,0.00
2022-11-26T04:23:31.489Z,0.00
2022-11-26T04:24:31.479Z,0.00
2022-11-26T04:25:31.471Z,0.00
2022-11-26T04:26:31.474Z,0.00
2022-11-26T04:27:31.442Z,0.00
2022-11-26T04:28:31.424Z,0.00
2022-11-26T04:29:31.428Z,0.00
2022-11-26T04:30:31.400Z,0.00
2022-11-26T04:31:31.466Z,0.00
2022-11-26T04:32:31.409Z,0.00
2022-11-26T04:33:31.371Z,0.00
2022-11-26T04:34:31.378Z,0.00
2022-11-26T04:35:31.350Z,0.00
2022-11-26T04:36:31.343Z,0.00
2022-11-26T04:37:31.340Z,0.00
2022-11-26T04:38:31.339Z,0.00
2022-11-26T04:39:31.302Z,0.00
2022-11-26T04:40:31.290Z,0.00
2022-11-26T04:41:31.285Z,0.00
2022-11-26T04:42:31.270Z,0.00
2022-11-26T04:43:31.270Z,0.00
2022-11-26T04:44:31.308Z,0.00
2022-11-26T04:45:31.298Z,0.00
2022-11-26T04:46:31.227Z,0.00
2022-11-26T04:47:31.220Z,0.00
2022-11-26T04:48:31.204Z,0.00
2022-11-26T04:49:31.198Z,0.00
2022-11-26T04:50:31.213Z,0.00
2022-11-26T04:51:31.178Z,0.00
2022-11-26T04:52:31.162Z,0.00
2022-11-26T04:53:31.150Z,0.00
2022-11-26T04:54:31.139Z,0.00
2022-11-26T04:55:31.140Z,0.00
2022-11-26T04:56:31.711Z,0.00
2022-11-26T04:57:31.116Z,0.00
2022-11-26T04:58:31.089Z,0.00
2022-11-26T04:59:31.096Z,0.00
2022-11-26T05:00:31.073Z,0.00
2022-11-26T05:01:31.130Z,0.00
2022-11-26T05:02:31.111Z,0.00
2022-11-26T05:03:31.050Z,0.00
2022-11-26T05:04:31.035Z,0.00
2022-11-26T05:05:31.028Z,0.00
2022-11-26T05:06:31.013Z,0.00
2022-11-26T05:07:31.054Z,0.00
2022-11-26T05:08:31.016Z,0.00
2022-11-26T05:09:30.979Z,0.00
2022-11-26T05:10:30.988Z,0.00
2022-11-26T05:11:30.952Z,0.00
2022-11-26T05:12:30.948Z,0.00
2022-11-26T05:13:30.966Z,0.00
2022-11-26T05:14:30.917Z,0.00
2022-11-26T05:15:30.916Z,0.00
2022-11-26T05:16:30.944Z,0.00
2022-11-26T05:17:30.892Z,0.00
2022-11-26T05:18:30.879Z,0.00
2022-11-26T05:19:30.889Z,0.00
2022-11-26T05:20:30.861Z,0.00
2022-11-26T05:21:30.851Z,0.00
2022-11-26T05:22:30.825Z,0.00
2022-11-26T05:23:30.826Z,0.00
2022-11-26T05:24:30.845Z,0.00
2022-11-26T05:25:30.806Z,0.00
2022-11-26T05:26:30.775Z,0.00
2022-11-26T05:27:30.778Z,0.00
2022-11-26T05:28:30.758Z,0.00
2022-11-26T05:29:30.755Z,0.00
2022-11-26T05:30:30.755Z,0.00
2022-11-26T05:31:30.778Z,0.00
2022-11-26T05:32:30.717Z,0.00
2022-11-26T05:33:30.703Z,0.00
2022-11-26T05:34:31.417Z,0.00
2022-11-26T05:35:30.718Z,0.00
2022-11-26T05:36:30.665Z,0.00
2022-11-26T05:37:32.326Z,0.00
2022-11-26T05:38:30.647Z,0.00
2022-11-26T05:39:30.684Z,0.00
2022-11-26T05:40:30.634Z,0.00
2022-11-26T05:41:30.634Z,0.00
2022-11-26T05:42:30.607Z,0.00
2022-11-26T05:43:30.596Z,0.00
2022-11-26T05:44:30.585Z,0.00
2022-11-26T05:45:30.627Z,0.00
2022-11-26T05:46:30.583Z,0.00
2022-11-26T05:47:30.554Z,0.00
2022-11-26T05:48:30.535Z,0.00
2022-11-26T05:49:30.533Z,0.00
2022-11-26T05:50:30.517Z,0.00
2022-11-26T05:51:30.506Z,0.00
2022-11-26T05:52:30.514Z,0.00
2022-11-26T05:53:30.492Z,0.00
2022-11-26T05:54:30.479Z,0.00
2022-11-26T05:55:30.465Z,0.00
2022-11-26T05:56:30.524Z,0.00
2022-11-26T05:57:30.457Z,0.00
2022-11-26T05:58:30.422Z,0.00
2022-11-26T05:59:30.414Z,0.00
2022-11-26T06:00:30.410Z,0.00
2022-11-26T06:01:30.394Z,0.00
2022-11-26T06:02:30.545Z,0.00
2022-11-26T06:03:30.536Z,0.00
2022-11-26T06:04:30.364Z,0.00
2022-11-26T06:05:30.354Z,0.00
2022-11-26T06:06:30.331Z,0.00
2022-11-26T06:07:30.368Z,0.00
2022-11-26T06:08:30.331Z,0.00
2022-11-26T06:09:30.312Z,0.00
2022-11-26T06:10:30.301Z,0.00
2022-11-26T06:11:30.282Z,0.00
2022-11-26T06:12:30.271Z,0.00
2022-11-26T06:13:30.323Z,0.00
2022-11-26T06:14:30.261Z,0.00
2022-11-26T06:15:30.242Z,0.00
2022-11-26T06:16:30.311Z,0.00
2022-11-26T06:17:30.215Z,0.00
2022-11-26T06:18:30.241Z,4.00
2022-11-26T06:19:30.275Z,4.00
2022-11-26T06:20:30.174Z,0.00
2022-11-26T06:21:30.184Z,4.00
2022-11-26T06:22:30.181Z,4.00
2022-11-26T06:23:30.140Z,4.00
2022-11-26T06:24:30.233Z,4.00
2022-11-26T06:25:30.141Z,4.00
2022-11-26T06:26:30.120Z,8.00
2022-11-26T06:27:30.100Z,8.00
2022-11-26T06:28:30.094Z,12.00
2022-11-26T06:29:30.080Z,12.00
2022-11-26T06:30:30.091Z,16.00
2022-11-26T06:31:30.100Z,12.00
2022-11-26T06:32:30.061Z,16.00
2022-11-26T06:33:30.030Z,20.00
2022-11-26T06:34:30.014Z,28.00
2022-11-26T06:35:30.025Z,32.00
2022-11-26T06:36:30.039Z,36.00
2022-11-26T06:37:29.989Z,44.00
2022-11-26T06:38:29.990Z,52.00
2022-11-26T06:39:29.970Z,56.00
2022-11-26T06:40:29.949Z,64.00
2022-11-26T06:41:29.962Z,76.00
2022-11-26T06:42:29.933Z,84.00
2022-11-26T06:43:29.921Z,96.00
2022-11-26T06:44:29.917Z,104.00
2022-11-26T06:45:29.924Z,120.00
2022-11-26T06:46:29.899Z,132.00
2022-11-26T06:47:29.899Z,144.00
2022-11-26T06:48:29.898Z,160.00
2022-11-26T06:49:29.858Z,176.00
2022-11-26T06:50:29.847Z,188.00
2022-11-26T06:51:29.833Z,208.00
2022-11-26T06:52:29.838Z,236.00
2022-11-26T06:53:29.830Z,244.00
2022-11-26T06:54:29.901Z,264.00
2022-11-26T06:55:29.793Z,284.00
2022-11-26T06:56:29.778Z,296.00
2022-11-26T06:57:29.768Z,316.00
2022-11-26T06:58:29.780Z,348.00
2022-11-26T06:59:29.738Z,368.00
2022-11-26T07:00:29.775Z,396.00
2022-11-26T07:01:29.772Z,424.00
2022-11-26T07:02:29.800Z,452.00
2022-11-26T07:03:33.422Z,484.00
2022-11-26T07:04:29.686Z,512.00
2022-11-26T07:05:29.688Z,544.00
2022-11-26T07:06:29.676Z,568.00
2022-11-26T07:07:29.720Z,608.00
2022-11-26T07:08:29.646Z,644.00
2022-11-26T07:09:29.655Z,684.00
2022-11-26T07:10:29.643Z,724.00
2022-11-26T07:11:29.628Z,776.00
2022-11-26T07:12:29.604Z,812.00
2022-11-26T07:13:29.585Z,872.00
2022-11-26T07:14:29.574Z,908.00
2022-11-26T07:15:29.583Z,952.00
2022-11-26T07:16:29.577Z,988.00
2022-11-26T07:17:29.548Z,1040.00
2022-11-26T07:18:29.527Z,1076.00
2022-11-26T07:19:29.517Z,1088.00
2022-11-26T07:20:29.561Z,1108.00
2022-11-26T07:21:29.518Z,1148.00
2022-11-26T07:22:29.485Z,1180.00
2022-11-26T07:23:29.473Z,1260.00
2022-11-26T07:24:29.465Z,1328.00
2022-11-26T07:25:29.452Z,1384.00
2022-11-26T07:26:29.462Z,1444.00
2022-11-26T07:27:29.423Z,1516.00
2022-11-26T07:28:29.419Z,1580.00
2022-11-26T07:29:29.416Z,1640.00
2022-11-26T07:30:29.473Z,1656.00
2022-11-26T07:31:29.434Z,1688.00
2022-11-26T07:32:29.394Z,1740.00
2022-11-26T07:33:29.367Z,1744.00
2022-11-26T07:34:29.363Z,1796.00
2022-11-26T07:35:29.344Z,1900.00
2022-11-26T07:36:29.345Z,1964.00
2022-11-26T07:37:29.314Z,2020.00
2022-11-26T07:38:29.324Z,2056.00
2022-11-26T07:39:29.297Z,2132.00
2022-11-26T07:40:29.292Z,2232.00
2022-11-26T07:41:29.278Z,2416.00
2022-11-26T07:42:29.264Z,2580.00
2022-11-26T07:43:29.274Z,2580.00
2022-11-26T07:44:29.235Z,2636.00
2022-11-26T07:45:29.251Z,2772.00
2022-11-26T07:46:29.289Z,2884.00
2022-11-26T07:47:29.211Z,2864.00
2022-11-26T07:48:29.194Z,2720.00
2022-11-26T07:49:29.204Z,2808.00
2022-11-26T07:50:29.176Z,2952.00
2022-11-26T07:51:29.164Z,3076.00
2022-11-26T07:52:29.155Z,3288.00
2022-11-26T07:53:29.147Z,3212.00
2022-11-26T07:54:29.139Z,3332.00
2022-11-26T07:55:29.133Z,3592.00
2022-11-26T07:56:29.115Z,3444.00
2022-11-26T07:57:29.106Z,3348.00
2022-11-26T07:58:29.097Z,3500.00
2022-11-26T07:59:29.084Z,3988.00
2022-11-26T08:00:29.070Z,4160.00
2022-11-26T08:01:29.106Z,4172.00
2022-11-26T08:02:29.081Z,4440.00
2022-11-26T08:03:29.025Z,4916.00
2022-11-26T08:04:29.019Z,4816.00
2022-11-26T08:05:29.021Z,4116.00
2022-11-26T08:06:29.011Z,4248.00
2022-11-26T08:07:29.426Z,4508.00
2022-11-26T08:08:28.982Z,4156.00
2022-11-26T08:09:28.961Z,4148.00
2022-11-26T08:10:28.990Z,4192.00
2022-11-26T08:11:28.956Z,4192.00
2022-11-26T08:12:28.950Z,4124.00
2022-11-26T08:13:28.935Z,4008.00
2022-11-26T08:14:28.909Z,4200.00
2022-11-26T08:15:28.891Z,4376.00
2022-11-26T08:16:29.448Z,4388.00
2022-11-26T08:17:29.000Z,4376.00
2022-11-26T08:18:28.950Z,4484.00
2022-11-26T08:19:28.859Z,4764.00
2022-11-26T08:20:29.368Z,4820.00
2022-11-26T08:21:28.847Z,4740.00
2022-11-26T08:22:28.817Z,4792.00
2022-11-26T08:23:28.811Z,4800.00
2022-11-26T08:24:28.860Z,5292.00
2022-11-26T08:25:28.790Z,5356.00
2022-11-26T08:26:34.657Z,5248.00
2022-11-26T08:27:29.769Z,5136.00
2022-11-26T08:28:28.763Z,5012.00
2022-11-26T08:29:28.750Z,5180.00
2022-11-26T08:30:28.786Z,5392.00
2022-11-26T08:31:28.857Z,4748.00
2022-11-26T08:32:28.710Z,4472.00
2022-11-26T08:33:28.715Z,4680.00
2022-11-26T08:34:28.710Z,4800.00
2022-11-26T08:35:51.283Z,4748.00
2022-11-26T08:36:29.702Z,4636.00
2022-11-26T08:37:28.662Z,4560.00
2022-11-26T08:38:28.652Z,4624.00
2022-11-26T08:39:28.641Z,5040.00
2022-11-26T08:40:28.631Z,5156.00
2022-11-26T08:41:28.628Z,5260.00
2022-11-26T08:42:28.601Z,4944.00
2022-11-26T08:43:51.389Z,4988.00
2022-11-26T08:44:29.579Z,5572.00
2022-11-26T08:45:28.578Z,5400.00
2022-11-26T08:46:28.637Z,5292.00
2022-11-26T08:47:28.588Z,5612.00
2022-11-26T08:48:31.782Z,5412.00
2022-11-26T08:49:28.527Z,4656.00
2022-11-26T08:50:28.538Z,4580.00
2022-11-26T08:51:28.522Z,4964.00
2022-11-26T08:52:28.518Z,5040.00
2022-11-26T08:53:28.738Z,5044.00
2022-11-26T08:54:28.574Z,5036.00
2022-11-26T08:55:53.356Z,5052.00
2022-11-26T08:56:29.689Z,5116.00
2022-11-26T08:57:28.437Z,5188.00
2022-11-26T08:58:28.500Z,5424.00
2022-11-26T08:59:28.417Z,5100.00
2022-11-26T09:00:28.407Z,5044.00
2022-11-26T09:01:28.439Z,4828.00
2022-11-26T09:02:28.394Z,4896.00
2022-11-26T09:03:28.405Z,5116.00
2022-11-26T09:04:28.386Z,5436.00
2022-11-26T09:05:28.356Z,5444.00
2022-11-26T09:06:28.345Z,5980.00
2022-11-26T09:07:28.386Z,5632.00
2022-11-26T09:08:28.336Z,5284.00
2022-11-26T09:09:28.307Z,5536.00
2022-11-26T09:10:28.321Z,5108.00
2022-11-26T09:11:28.284Z,4792.00
2022-11-26T09:12:28.285Z,4536.00
2022-11-26T09:13:28.268Z,4164.00
2022-11-26T09:14:28.343Z,3876.00
2022-11-26T09:15:28.272Z,3620.00
2022-11-26T09:16:28.272Z,3280.00
2022-11-26T09:17:28.216Z,2836.00
2022-11-26T09:18:28.215Z,2820.00
2022-11-26T09:19:28.206Z,3116.00
2022-11-26T09:20:28.189Z,3504.00
2022-11-26T09:21:28.185Z,4000.00
2022-11-26T09:22:28.166Z,4396.00
2022-11-26T09:23:28.157Z,4692.00
2022-11-26T09:24:28.289Z,4752.00
2022-11-26T09:25:28.135Z,4500.00
2022-11-26T09:26:28.143Z,4404.00
2022-11-26T09:27:28.106Z,4432.00
2022-11-26T09:28:28.111Z,4528.00
2022-11-26T09:29:28.095Z,4768.00
2022-11-26T09:30:28.076Z,5108.00
2022-11-26T09:31:28.205Z,5332.00
2022-11-26T09:32:32.667Z,5632.00
2022-11-26T09:33:29.045Z,5880.00
2022-11-26T09:34:28.048Z,6156.00
2022-11-26T09:35:28.024Z,6312.00
2022-11-26T09:36:28.031Z,6248.00
2022-11-26T09:37:28.284Z,6388.00
2022-11-26T09:38:28.017Z,6384.00
2022-11-26T09:39:27.984Z,6240.00
2022-11-26T09:40:27.963Z,6096.00
2022-11-26T09:41:27.964Z,6064.00
2022-11-26T09:42:27.945Z,6124.00
2022-11-26T09:43:27.953Z,6328.00
2022-11-26T09:44:27.924Z,6572.00
2022-11-26T09:45:27.963Z,7648.00
2022-11-26T09:46:33.621Z,7048.00
2022-11-26T09:47:28.891Z,6972.00
2022-11-26T09:48:27.928Z,6904.00
2022-11-26T09:49:27.884Z,6608.00
2022-11-26T09:50:27.857Z,6212.00
2022-11-26T09:51:27.834Z,7480.00
2022-11-26T09:52:27.833Z,10508.00
2022-11-26T09:53:27.832Z,10832.00
2022-11-26T09:54:27.804Z,11328.00
2022-11-26T09:55:27.825Z,11420.00
2022-11-26T09:56:28.004Z,9564.00
2022-11-26T09:57:28.104Z,7524.00
2022-11-26T09:58:28.538Z,6384.00
2022-11-26T09:59:28.451Z,6564.00
2022-11-26T10:00:28.643Z,7596.00
2022-11-26T10:01:27.759Z,7620.00
2022-11-26T10:02:27.817Z,7704.00
2022-11-26T10:03:27.764Z,7444.00
2022-11-26T10:04:27.692Z,7024.00
2022-11-26T10:05:27.720Z,7196.00
2022-11-26T10:06:27.773Z,7236.00
2022-11-26T10:07:27.710Z,7176.00
2022-11-26T10:08:27.643Z,7448.00
2022-11-26T10:09:27.634Z,8152.00
2022-11-26T10:10:27.803Z,7968.00
2022-11-26T10:11:28.002Z,7676.00
2022-11-26T10:12:27.654Z,7528.00
2022-11-26T10:13:27.585Z,7192.00
2022-11-26T10:14:27.823Z,7024.00
2022-11-26T10:15:29.573Z,7260.00
2022-11-26T10:16:27.610Z,7120.00
2022-11-26T10:17:27.543Z,6912.00
2022-11-26T10:18:27.575Z,6804.00
2022-11-26T10:19:27.666Z,6288.00
2022-11-26T10:20:27.523Z,5992.00
2022-11-26T10:21:57.049Z,5796.00
2022-11-26T10:22:28.484Z,5860.00
2022-11-26T10:23:27.490Z,6188.00
2022-11-26T10:24:27.525Z,6120.00
2022-11-26T10:25:27.592Z,6052.00
2022-11-26T10:26:27.453Z,5960.00
2022-11-26T10:27:27.434Z,6264.00
2022-11-26T10:28:27.722Z,6704.00
2022-11-26T10:29:27.422Z,6952.00
2022-11-26T10:30:27.426Z,6792.00
2022-11-26T10:31:27.452Z,6656.00
2022-11-26T10:32:27.384Z,7164.00
2022-11-26T10:33:28.133Z,7092.00
2022-11-26T10:34:29.309Z,6728.00
2022-11-26T10:35:27.572Z,7272.00
2022-11-26T10:36:27.374Z,6304.00
2022-11-26T10:37:27.332Z,6088.00
2022-11-26T10:38:27.309Z,6184.00
2022-11-26T10:39:27.302Z,6240.00
2022-11-26T10:40:27.286Z,6240.00
2022-11-26T10:41:27.401Z,6412.00
2022-11-26T10:42:27.275Z,6272.00
2022-11-26T10:43:27.274Z,6324.00
2022-11-26T10:44:27.329Z,6168.00
2022-11-26T10:45:27.331Z,5904.00
2022-11-26T10:46:27.362Z,5964.00
2022-11-26T10:47:27.439Z,5884.00
2022-11-26T10:48:27.198Z,5784.00
2022-11-26T10:49:27.467Z,6416.00
2022-11-26T10:50:46.567Z,6580.00
2022-11-26T10:51:28.505Z,6504.00
2022-11-26T10:52:27.289Z,6496.00
2022-11-26T10:53:27.281Z,6340.00
2022-11-26T10:54:27.141Z,6324.00
2022-11-26T10:55:27.133Z,6412.00
2022-11-26T10:56:27.208Z,6128.00
2022-11-26T10:57:27.101Z,6336.00
2022-11-26T10:58:27.101Z,6424.00
2022-11-26T10:59:27.233Z,6504.00
2022-11-26T11:00:27.107Z,6704.00
2022-11-26T11:01:27.089Z,6748.00
2022-11-26T11:02:27.155Z,6744.00
2022-11-26T11:03:44.900Z,6540.00
2022-11-26T11:04:28.024Z,6344.00
2022-11-26T11:05:27.278Z,6272.00
2022-11-26T11:06:27.024Z,6028.00
2022-11-26T11:07:27.357Z,6012.00
2022-11-26T11:08:26.980Z,6264.00
2022-11-26T11:09:27.093Z,6428.00
2022-11-26T11:10:26.962Z,5852.00
2022-11-26T11:11:26.940Z,5504.00
2022-11-26T11:12:26.934Z,5592.00
2022-11-26T11:13:26.918Z,5804.00
2022-11-26T11:14:26.913Z,5804.00
2022-11-26T11:15:27.042Z,5720.00
2022-11-26T11:16:26.975Z,5592.00
2022-11-26T11:17:26.877Z,5848.00
2022-11-26T11:18:26.861Z,6000.00
2022-11-26T11:19:27.260Z,5900.00
2022-11-26T11:20:27.381Z,5652.00
2022-11-26T11:21:26.851Z,5788.00
2022-11-26T11:22:26.819Z,5840.00
2022-11-26T11:23:45.700Z,5652.00
2022-11-26T11:24:27.799Z,5712.00
2022-11-26T11:25:27.213Z,5888.00
2022-11-26T11:26:27.013Z,5460.00
2022-11-26T11:27:27.323Z,4920.00
2022-11-26T11:28:26.751Z,4704.00
2022-11-26T11:29:26.740Z,4548.00
2022-11-26T11:30:26.729Z,4796.00
2022-11-26T11:31:26.814Z,4768.00
2022-11-26T11:32:26.711Z,4732.00
2022-11-26T11:33:26.722Z,4800.00
2022-11-26T11:34:26.694Z,4816.00
2022-11-26T11:35:26.679Z,4752.00
2022-11-26T11:36:26.670Z,4696.00
2022-11-26T11:37:26.659Z,4884.00
2022-11-26T11:38:26.642Z,5036.00
2022-11-26T11:39:26.662Z,5188.00
2022-11-26T11:40:26.648Z,4760.00
2022-11-26T11:41:26.621Z,4760.00
2022-11-26T11:42:26.589Z,5016.00
2022-11-26T11:43:26.594Z,5092.00
2022-11-26T11:44:26.590Z,5008.00
2022-11-26T11:45:26.648Z,4856.00
2022-11-26T11:46:26.680Z,5068.00
2022-11-26T11:47:26.650Z,4964.00
2022-11-26T11:48:26.529Z,4756.00
2022-11-26T11:49:26.524Z,5148.00
2022-11-26T11:50:26.508Z,5072.00
2022-11-26T11:51:26.512Z,4676.00
2022-11-26T11:52:26.487Z,4608.00
2022-11-26T11:53:26.469Z,4528.00
2022-11-26T11:54:26.460Z,4804.00
2022-11-26T11:55:26.459Z,5204.00
2022-11-26T11:56:26.499Z,4932.00
2022-11-26T11:57:26.428Z,5156.00
2022-11-26T11:58:26.411Z,4848.00
2022-11-26T11:59:26.409Z,5388.00
2022-11-26T12:00:26.396Z,5540.00
2022-11-26T12:01:26.390Z,4924.00
2022-11-26T12:02:26.411Z,4752.00
2022-11-26T12:03:26.368Z,5412.00
2022-11-26T12:04:26.423Z,5784.00
2022-11-26T12:05:26.632Z,5500.00
2022-11-26T12:06:26.330Z,5360.00
2022-11-26T12:07:26.476Z,5552.00
2022-11-26T12:08:26.312Z,5676.00
2022-11-26T12:09:26.289Z,5656.00
2022-11-26T12:10:27.883Z,5752.00
2022-11-26T12:11:26.287Z,5916.00
2022-11-26T12:12:26.263Z,4532.00
2022-11-26T12:13:26.270Z,5504.00
2022-11-26T12:14:26.241Z,4688.00
2022-11-26T12:15:26.230Z,4384.00
2022-11-26T12:16:26.251Z,4316.00
2022-11-26T12:17:31.773Z,4772.00
2022-11-26T12:18:27.247Z,4636.00
2022-11-26T12:19:26.201Z,4612.00
2022-11-26T12:20:26.168Z,4492.00
2022-11-26T12:21:26.170Z,4492.00
2022-11-26T12:22:26.165Z,4488.00
2022-11-26T12:23:26.150Z,4100.00
2022-11-26T12:24:26.157Z,3716.00
2022-11-26T12:25:26.120Z,3880.00
2022-11-26T12:26:26.109Z,4008.00
2022-11-26T12:27:26.855Z,3892.00
2022-11-26T12:28:26.099Z,3852.00
2022-11-26T12:29:26.087Z,3524.00
2022-11-26T12:30:26.082Z,3356.00
2022-11-26T12:31:26.100Z,3300.00
2022-11-26T12:32:26.037Z,3332.00
2022-11-26T12:33:26.029Z,3392.00
2022-11-26T12:34:26.017Z,3372.00
2022-11-26T12:35:26.012Z,3524.00
2022-11-26T12:36:26.022Z,3400.00
2022-11-26T12:37:25.998Z,3376.00
2022-11-26T12:38:25.969Z,3500.00
2022-11-26T12:39:25.968Z,3484.00
2022-11-26T12:40:26.710Z,3368.00
2022-11-26T12:42:19.453Z,3248.00
2022-11-26T12:43:19.406Z,3288.00